Time;durP1;ratioP1;P1;durP2;ratioP2;P2;SDS_P1;SDS_P2;PMS_P1;PMS_P2;Temp;Humidity;BMP_temperature;BMP_pressure;BME280_temperature;BME280_humidity;BME280_pressure;Samples;Min_cycle;Max_cycle;Signal;HPM_P1;HPM_P2
2021/06/14 00:01:52;;;;;;;5.37;2.60;;;12.70;99.90;;;;;;4960472;29;20185;-84
2021/06/14 00:04:19;;;;;;;4.90;2.30;;;12.70;99.90;;;;;;4943031;29;20205;-84
2021/06/14 00:06:44;;;;;;;3.60;2.40;;;12.60;99.90;;;;;;4960226;29;20196;-84
2021/06/14 00:09:11;;;;;;;4.47;2.60;;;12.60;99.90;;;;;;4943201;29;20666;-84
2021/06/14 00:11:37;;;;;;;3.50;2.37;;;12.60;99.90;;;;;;4942834;29;20199;-84
2021/06/14 00:14:04;;;;;;;3.47;2.40;;;12.50;99.90;;;;;;4942603;29;20207;-84
2021/06/14 00:16:30;;;;;;;3.57;2.57;;;12.40;99.90;;;;;;4958434;29;20204;-84
2021/06/14 00:18:56;;;;;;;2.73;2.50;;;12.40;99.90;;;;;;4951915;29;20198;-85
2021/06/14 00:21:22;;;;;;;4.80;2.40;;;12.40;99.90;;;;;;4947386;29;20181;-86
2021/06/14 00:23:48;;;;;;;6.10;2.80;;;12.40;99.90;;;;;;4946451;29;20211;-85
2021/06/14 00:26:15;;;;;;;2.80;2.50;;;12.30;99.90;;;;;;4963697;29;20697;-85
2021/06/14 00:28:42;;;;;;;3.37;2.20;;;12.30;99.90;;;;;;4951277;29;20185;-85
2021/06/14 00:31:09;;;;;;;3.93;2.57;;;12.30;99.90;;;;;;4969671;29;20180;-85
2021/06/14 00:33:36;;;;;;;4.50;2.40;;;12.30;99.90;;;;;;4945307;29;20275;-85
2021/06/14 00:36:02;;;;;;;3.73;2.30;;;12.30;99.90;;;;;;4945673;29;20228;-85
2021/06/14 00:38:27;;;;;;;3.13;2.40;;;12.20;99.90;;;;;;4962993;29;20314;-85
2021/06/14 00:40:53;;;;;;;4.33;2.53;;;12.20;99.90;;;;;;4962580;29;20205;-86
2021/06/14 00:43:19;;;;;;;5.00;2.57;;;12.10;99.90;;;;;;4945495;29;20213;-85
2021/06/14 00:45:48;;;;;;;6.70;2.73;;;12.10;99.90;;;;;;4945095;28;20340;-85
2021/06/14 00:48:15;;;;;;;6.10;2.43;;;12.10;99.90;;;;;;4945748;29;20185;-85
2021/06/14 00:50:51;;;;;;;3.67;2.83;;;12.10;99.90;;;;;;4945337;29;20189;-86
2021/06/14 00:53:21;;;;;;;2.87;2.40;;;12.00;99.90;;;;;;4961349;29;20223;-85
2021/06/14 00:55:47;;;;;;;3.33;2.70;;;12.00;99.90;;;;;;4962829;29;20192;-85
2021/06/14 00:58:13;;;;;;;4.07;2.70;;;12.00;99.90;;;;;;4962660;29;20546;-85
2021/06/14 01:00:39;;;;;;;6.23;2.97;;;12.00;99.90;;;;;;4962656;29;20572;-85
2021/06/14 01:03:05;;;;;;;5.07;2.40;;;11.90;99.90;;;;;;4944874;29;20215;-85
2021/06/14 01:05:38;;;;;;;4.27;2.93;;;12.00;99.90;;;;;;4945718;29;20259;-85
2021/06/14 01:08:06;;;;;;;2.67;2.47;;;11.90;99.90;;;;;;4945128;29;20188;-86
2021/06/14 01:10:32;;;;;;;4.43;2.53;;;11.80;99.90;;;;;;4944919;29;20268;-85
2021/06/14 01:13:05;;;;;;;5.17;2.80;;;11.80;99.90;;;;;;4944959;29;20643;-85
2021/06/14 01:15:34;;;;;;;4.67;2.70;;;11.90;99.90;;;;;;4962083;29;20184;-85
2021/06/14 01:18:04;;;;;;;4.23;2.70;;;11.80;99.90;;;;;;4962498;29;20627;-85
2021/06/14 01:20:48;;;;;;;2.97;2.77;;;11.80;99.90;;;;;;4944382;29;20695;-85
2021/06/14 01:23:35;;;;;;;5.57;2.97;;;11.80;99.90;;;;;;4961868;29;20263;-85
2021/06/14 01:26:10;;;;;;;4.90;2.63;;;11.70;99.90;;;;;;4944902;29;20201;-85
2021/06/14 01:28:37;;;;;;;2.93;2.53;;;11.60;99.90;;;;;;4944769;29;20184;-85
2021/06/14 01:31:04;;;;;;;3.37;2.57;;;11.60;99.90;;;;;;4944126;29;20181;-85
2021/06/14 01:33:33;;;;;;;6.03;2.60;;;11.70;99.90;;;;;;4944617;29;20193;-84
2021/06/14 01:36:08;;;;;;;4.27;2.53;;;11.60;99.90;;;;;;4944493;29;20208;-85
2021/06/14 01:38:35;;;;;;;3.70;2.77;;;11.60;99.90;;;;;;4944654;29;20183;-85
2021/06/14 01:41:07;;;;;;;3.70;2.97;;;11.60;99.90;;;;;;4944035;29;20189;-85
2021/06/14 01:43:36;;;;;;;3.53;3.07;;;11.50;99.90;;;;;;4944444;29;20618;-85
2021/06/14 01:46:08;;;;;;;3.73;2.93;;;11.50;99.90;;;;;;4962056;29;20193;-85
2021/06/14 01:48:36;;;;;;;3.90;2.70;;;11.50;99.90;;;;;;4961713;29;20241;-85
2021/06/14 01:51:03;;;;;;;6.97;2.70;;;11.40;99.90;;;;;;4960511;29;20183;-85
2021/06/14 01:53:28;;;;;;;3.30;2.60;;;11.40;99.90;;;;;;4944897;29;20185;-85
2021/06/14 01:55:55;;;;;;;3.33;3.00;;;11.40;99.90;;;;;;4961322;29;20207;-84
2021/06/14 01:58:21;;;;;;;6.77;3.07;;;11.40;99.90;;;;;;4961097;28;20184;-85
2021/06/14 02:00:47;;;;;;;4.77;3.10;;;11.30;99.90;;;;;;4944337;29;20181;-85
2021/06/14 02:03:15;;;;;;;4.37;2.90;;;11.40;99.90;;;;;;4944342;29;20692;-85
2021/06/14 02:05:42;;;;;;;6.27;3.43;;;11.30;99.90;;;;;;4944499;29;20188;-85
2021/06/14 02:08:10;;;;;;;4.33;2.93;;;11.30;99.90;;;;;;4944608;29;20241;-85
2021/06/14 02:10:37;;;;;;;3.87;2.73;;;11.30;99.90;;;;;;4944205;29;20184;-85
2021/06/14 02:13:04;;;;;;;3.40;3.10;;;11.30;99.90;;;;;;4943867;29;20661;-85
2021/06/14 02:15:30;;;;;;;5.30;2.87;;;11.20;99.90;;;;;;4944684;29;20188;-85
2021/06/14 02:17:58;;;;;;;7.33;2.83;;;11.20;99.90;;;;;;4961102;29;20284;-85
2021/06/14 02:20:24;;;;;;;7.30;2.70;;;11.20;99.90;;;;;;4944185;29;20610;-85
2021/06/14 02:22:50;;;;;;;3.73;2.77;;;11.20;99.90;;;;;;4943987;29;20374;-85
2021/06/14 02:25:16;;;;;;;4.07;2.93;;;11.10;99.90;;;;;;4944515;29;20292;-85
2021/06/14 02:27:42;;;;;;;4.40;3.13;;;11.10;99.90;;;;;;4961319;29;20196;-85
2021/06/14 02:30:12;;;;;;;3.53;2.87;;;11.10;99.90;;;;;;4961807;29;20244;-85
2021/06/14 02:32:38;;;;;;;7.27;2.87;;;11.10;99.90;;;;;;4944198;29;20651;-85
2021/06/14 02:35:06;;;;;;;4.87;2.87;;;11.10;99.90;;;;;;4961281;29;20181;-85
2021/06/14 02:37:34;;;;;;;5.27;3.10;;;11.10;99.90;;;;;;4944101;29;20201;-85
2021/06/14 02:40:00;;;;;;;4.27;2.90;;;11.10;99.90;;;;;;4961898;29;20625;-85
2021/06/14 02:42:26;;;;;;;5.40;3.10;;;11.10;99.90;;;;;;4961641;29;20244;-85
2021/06/14 02:44:52;;;;;;;3.30;3.00;;;11.00;99.90;;;;;;4960826;29;20209;-85
2021/06/14 02:47:18;;;;;;;5.13;3.23;;;11.00;99.90;;;;;;4961260;29;20197;-85
2021/06/14 02:49:45;;;;;;;3.93;2.87;;;10.90;99.90;;;;;;4961204;29;20177;-85
2021/06/14 02:52:13;;;;;;;5.40;3.63;;;10.80;99.90;;;;;;4944573;29;20554;-85
2021/06/14 02:55:03;;;;;;;5.60;3.40;;;10.80;99.90;;;;;;4944861;29;20188;-86
2021/06/14 02:57:31;;;;;;;6.87;3.60;;;10.80;99.90;;;;;;4959846;29;20810;-85
2021/06/14 02:59:58;;;;;;;6.27;3.77;;;10.80;99.90;;;;;;4957657;29;20192;-84
2021/06/14 03:02:25;;;;;;;6.73;3.23;;;10.80;99.90;;;;;;4957460;29;20185;-84
2021/06/14 03:04:51;;;;;;;3.70;2.63;;;10.80;99.90;;;;;;4972317;29;20768;-85
2021/06/14 03:07:23;;;;;;;4.70;3.03;;;10.70;99.90;;;;;;4948457;29;20198;-85
2021/06/14 03:09:49;;;;;;;4.43;2.97;;;10.70;99.90;;;;;;4948218;29;20243;-85
2021/06/14 03:12:16;;;;;;;3.47;2.93;;;10.70;99.90;;;;;;4964949;29;20174;-86
2021/06/14 03:14:43;;;;;;;4.47;3.30;;;10.60;99.90;;;;;;4961784;29;20725;-85
2021/06/14 03:17:10;;;;;;;6.30;3.27;;;10.60;99.90;;;;;;4962772;29;20206;-86
2021/06/14 03:19:36;;;;;;;4.03;3.30;;;10.70;99.90;;;;;;4962679;29;20186;-86
2021/06/14 03:22:06;;;;;;;3.93;3.53;;;10.70;99.90;;;;;;4961989;29;20181;-86
2021/06/14 03:24:33;;;;;;;4.77;3.47;;;10.80;99.90;;;;;;4945933;29;20220;-85
2021/06/14 03:26:59;;;;;;;3.90;3.40;;;10.80;99.90;;;;;;4964162;29;20723;-86
2021/06/14 03:29:26;;;;;;;6.83;3.87;;;10.80;99.90;;;;;;4964445;29;20247;-85
2021/06/14 03:31:53;;;;;;;6.13;3.00;;;10.80;99.90;;;;;;4947376;29;20218;-86
2021/06/14 03:34:20;;;;;;;4.20;3.00;;;10.70;99.90;;;;;;4947269;29;20181;-86
2021/06/14 03:36:47;;;;;;;5.50;3.70;;;10.70;99.90;;;;;;4964224;29;20198;-86
2021/06/14 03:39:17;;;;;;;4.30;3.53;;;10.70;99.90;;;;;;4963334;29;20232;-86
2021/06/14 03:41:47;;;;;;;7.17;3.90;;;10.60;99.90;;;;;;4946804;29;20619;-86
2021/06/14 03:44:13;;;;;;;6.30;3.40;;;10.60;99.90;;;;;;4963838;29;20205;-86
2021/06/14 03:46:39;;;;;;;5.17;3.90;;;10.60;99.90;;;;;;4963840;29;20194;-86
2021/06/14 03:49:05;;;;;;;5.53;3.60;;;10.60;99.90;;;;;;4947488;29;20212;-85
2021/06/14 03:51:31;;;;;;;7.97;3.97;;;10.60;99.90;;;;;;4963755;29;20631;-86
2021/06/14 03:53:58;;;;;;;10.70;4.03;;;10.60;99.90;;;;;;4963413;29;20625;-86
2021/06/14 03:56:29;;;;;;;9.20;3.90;;;10.60;99.90;;;;;;4963559;29;20202;-86
2021/06/14 03:58:55;;;;;;;3.93;3.53;;;10.70;99.90;;;;;;4947204;29;20183;-86
2021/06/14 04:01:22;;;;;;;4.00;3.33;;;10.60;99.90;;;;;;4946796;29;20195;-85
2021/06/14 04:04:03;;;;;;;10.60;4.20;;;10.60;99.90;;;;;;4946236;29;20215;-85
2021/06/14 04:06:28;;;;;;;6.93;3.87;;;10.60;99.90;;;;;;4961638;29;20253;-85
2021/06/14 04:08:54;;;;;;;5.07;3.83;;;10.60;99.90;;;;;;4945078;29;20201;-86
2021/06/14 04:11:20;;;;;;;6.77;4.20;;;10.60;99.90;;;;;;4947104;29;20363;-85
2021/06/14 04:13:49;;;;;;;5.87;3.83;;;10.70;99.90;;;;;;4946815;29;20196;-86
2021/06/14 04:16:18;;;;;;;8.07;3.83;;;10.70;99.90;;;;;;4947555;29;20205;-86
2021/06/14 04:18:44;;;;;;;10.40;3.63;;;10.80;99.90;;;;;;4947792;29;20181;-86
2021/06/14 04:21:09;;;;;;;5.27;3.43;;;10.80;99.90;;;;;;4948763;29;20212;-86
2021/06/14 04:23:35;;;;;;;12.43;3.53;;;10.80;99.90;;;;;;4950812;29;20201;-85
2021/06/14 04:26:01;;;;;;;4.27;3.47;;;10.90;99.90;;;;;;4964947;29;20193;-85
2021/06/14 04:28:27;;;;;;;4.70;3.40;;;10.90;99.90;;;;;;4981965;29;20164;-85
2021/06/14 04:30:52;;;;;;;8.13;3.77;;;11.00;99.90;;;;;;4964620;29;20182;-85
2021/06/14 04:33:18;;;;;;;7.70;3.97;;;11.10;99.90;;;;;;4965078;29;20190;-87
2021/06/14 04:35:44;;;;;;;7.80;4.50;;;11.20;99.90;;;;;;4944627;29;20254;-85
2021/06/14 04:38:09;;;;;;;5.57;3.67;;;11.30;99.90;;;;;;4944951;29;20192;-85
2021/06/14 04:40:35;;;;;;;5.63;3.87;;;11.30;99.90;;;;;;4961781;29;20190;-85
2021/06/14 04:43:01;;;;;;;4.37;3.70;;;11.40;99.90;;;;;;4962009;29;20257;-85
2021/06/14 04:45:27;;;;;;;5.83;3.50;;;11.50;99.90;;;;;;4944640;29;20214;-86
2021/06/14 04:47:53;;;;;;;3.87;3.33;;;11.60;99.90;;;;;;4944262;29;20208;-86
2021/06/14 04:50:19;;;;;;;7.83;3.70;;;11.70;99.90;;;;;;4943879;29;20203;-86
2021/06/14 04:52:44;;;;;;;4.87;3.67;;;11.80;99.90;;;;;;4944625;29;20184;-86
2021/06/14 04:55:11;;;;;;;8.63;4.37;;;11.80;99.90;;;;;;4944900;29;20722;-85
2021/06/14 04:57:37;;;;;;;6.13;3.80;;;11.90;99.90;;;;;;4945125;29;20694;-86
2021/06/14 05:00:05;;;;;;;6.80;3.53;;;12.00;99.90;;;;;;4944816;29;20192;-85
2021/06/14 05:02:31;;;;;;;6.67;3.77;;;12.10;99.90;;;;;;4962056;29;20185;-85
2021/06/14 05:04:57;;;;;;;6.13;3.80;;;12.10;99.90;;;;;;4961427;29;20694;-85
2021/06/14 05:07:23;;;;;;;6.20;3.60;;;12.20;99.90;;;;;;4961609;29;20218;-85
2021/06/14 05:09:49;;;;;;;6.80;3.80;;;12.30;99.90;;;;;;4944509;29;20644;-85
2021/06/14 05:12:14;;;;;;;7.50;3.53;;;12.40;99.90;;;;;;4943578;29;20181;-86
2021/06/14 05:14:40;;;;;;;5.60;3.77;;;12.40;99.90;;;;;;4961718;29;20193;-85
2021/06/14 05:17:06;;;;;;;6.97;4.30;;;12.50;99.90;;;;;;4943787;29;20701;-86
2021/06/14 05:19:31;;;;;;;7.10;3.63;;;12.60;99.90;;;;;;4944877;29;20186;-86
2021/06/14 05:22:01;;;;;;;5.87;3.33;;;12.70;99.90;;;;;;4945839;29;20184;-86
2021/06/14 05:24:27;;;;;;;5.80;4.03;;;12.70;99.90;;;;;;4943906;29;20255;-85
2021/06/14 05:26:53;;;;;;;6.40;3.97;;;12.80;99.90;;;;;;4961562;29;20193;-86
2021/06/14 05:29:19;;;;;;;7.87;3.77;;;12.80;99.90;;;;;;4943882;29;20192;-85
2021/06/14 05:31:45;;;;;;;10.63;4.17;;;12.90;99.90;;;;;;4961579;29;20212;-81
2021/06/14 05:34:10;;;;;;;10.93;4.67;;;12.90;99.90;;;;;;4946958;29;20189;-85
2021/06/14 05:36:36;;;;;;;7.97;3.77;;;13.00;99.90;;;;;;4964104;29;20205;-86
2021/06/14 05:39:03;;;;;;;13.57;3.40;;;13.00;99.90;;;;;;4966858;29;20187;-86
2021/06/14 05:41:29;;;;;;;4.70;3.00;;;13.10;99.90;;;;;;4948088;29;20184;-87
2021/06/14 05:43:54;;;;;;;7.90;3.60;;;13.20;99.90;;;;;;4954683;29;20215;-87
2021/06/14 05:46:21;;;;;;;6.63;3.40;;;13.30;99.90;;;;;;4952289;29;20205;-87
2021/06/14 05:48:47;;;;;;;7.77;3.87;;;13.40;99.90;;;;;;4951706;29;20245;-86
2021/06/14 05:51:12;;;;;;;8.50;3.90;;;13.50;99.90;;;;;;4944430;29;20598;-86
2021/06/14 05:53:38;;;;;;;5.57;3.70;;;13.60;99.90;;;;;;4956875;29;20191;-87
2021/06/14 05:56:04;;;;;;;5.40;3.60;;;13.70;99.90;;;;;;4960961;29;20204;-86
2021/06/14 05:58:29;;;;;;;7.50;3.43;;;13.80;99.90;;;;;;4956372;29;20625;-83
2021/06/14 06:00:55;;;;;;;8.40;3.80;;;13.90;99.90;;;;;;4947321;29;20184;-87
2021/06/14 06:03:21;;;;;;;5.87;3.87;;;13.90;99.90;;;;;;4948653;29;20306;-87
2021/06/14 06:05:46;;;;;;;7.23;3.90;;;14.00;99.90;;;;;;4947405;29;20232;-87
2021/06/14 06:08:12;;;;;;;8.10;4.70;;;14.10;99.90;;;;;;4947986;29;20188;-87
2021/06/14 06:10:38;;;;;;;7.40;3.70;;;14.30;99.90;;;;;;4964121;29;20181;-86
2021/06/14 06:13:04;;;;;;;5.57;3.60;;;14.50;99.90;;;;;;4945017;29;20250;-87
2021/06/14 06:15:29;;;;;;;6.63;3.43;;;14.60;99.90;;;;;;4965637;29;20169;-87
2021/06/14 06:17:56;;;;;;;7.43;3.13;;;14.70;99.90;;;;;;4948629;29;20209;-87
2021/06/14 06:20:22;;;;;;;5.40;2.73;;;14.80;99.90;;;;;;4965673;29;20537;-87
2021/06/14 06:22:48;;;;;;;9.50;3.00;;;14.90;99.90;;;;;;4947998;29;20189;-87
2021/06/14 06:25:20;;;;;;;7.63;2.90;;;15.00;99.90;;;;;;4947047;29;20551;-86
2021/06/14 06:27:47;;;;;;;5.10;2.20;;;15.10;99.90;;;;;;4943425;29;20193;-86
2021/06/14 06:30:19;;;;;;;4.50;2.47;;;15.20;99.90;;;;;;4964929;29;20173;-87
2021/06/14 06:32:44;;;;;;;5.80;2.20;;;15.40;99.90;;;;;;4943896;29;20200;-86
2021/06/14 06:35:11;;;;;;;4.00;1.87;;;15.50;99.90;;;;;;4944168;29;20635;-87
2021/06/14 06:37:37;;;;;;;5.97;2.40;;;15.60;99.90;;;;;;4944632;29;20279;-86
2021/06/14 06:40:05;;;;;;;7.03;2.13;;;15.70;99.90;;;;;;4961648;29;20172;-87
2021/06/14 06:42:31;;;;;;;3.07;1.97;;;15.90;99.90;;;;;;4961847;29;20173;-86
2021/06/14 06:44:56;;;;;;;3.80;1.93;;;16.00;99.90;;;;;;4942987;29;20231;-86
2021/06/14 06:47:22;;;;;;;2.27;1.67;;;16.10;99.90;;;;;;4961790;29;20196;-87
2021/06/14 06:49:48;;;;;;;5.87;1.90;;;16.30;99.90;;;;;;4944202;29;20173;-86
2021/06/14 06:52:14;;;;;;;4.83;2.10;;;16.50;99.90;;;;;;4945177;29;20189;-86
2021/06/14 06:54:39;;;;;;;5.70;2.10;;;16.70;99.90;;;;;;4962541;29;20185;-86
2021/06/14 06:57:06;;;;;;;8.77;1.80;;;16.80;99.90;;;;;;4961095;29;20208;-85
2021/06/14 06:59:31;;;;;;;5.00;2.10;;;16.90;99.90;;;;;;4944467;29;20196;-87
2021/06/14 07:01:57;;;;;;;3.27;2.10;;;17.00;99.90;;;;;;4960875;29;20184;-86
2021/06/14 07:04:22;;;;;;;2.10;1.57;;;17.20;99.90;;;;;;4943184;29;20212;-86
2021/06/14 07:06:48;;;;;;;5.30;1.90;;;17.30;99.90;;;;;;4943194;29;20300;-86
2021/06/14 07:09:14;;;;;;;7.43;1.80;;;17.40;99.90;;;;;;4943546;29;20188;-87
2021/06/14 07:11:40;;;;;;;3.77;1.90;;;17.40;99.90;;;;;;4961332;29;20181;-86
2021/06/14 07:14:06;;;;;;;6.33;1.83;;;17.60;99.90;;;;;;4961070;29;20548;-86
2021/06/14 07:16:33;;;;;;;2.93;1.73;;;17.70;99.90;;;;;;4960808;29;20197;-86
2021/06/14 07:19:00;;;;;;;4.33;1.57;;;17.80;99.90;;;;;;4942732;29;20189;-86
2021/06/14 07:21:26;;;;;;;4.73;1.93;;;17.90;99.90;;;;;;4943115;29;20195;-86
2021/06/14 07:23:54;;;;;;;3.73;1.50;;;17.90;99.90;;;;;;4960329;29;20205;-86
2021/06/14 07:26:21;;;;;;;2.47;1.73;;;18.00;99.90;;;;;;4960320;29;20194;-86
2021/06/14 07:28:46;;;;;;;4.20;1.83;;;18.10;99.90;;;;;;4942750;29;20731;-86
2021/06/14 07:31:13;;;;;;;2.53;1.60;;;18.20;99.90;;;;;;4942692;29;20224;-86
2021/06/14 07:33:39;;;;;;;2.63;1.80;;;18.20;99.90;;;;;;4963137;29;20180;-86
2021/06/14 07:36:08;;;;;;;2.97;1.90;;;18.30;99.90;;;;;;4961051;29;20209;-86
2021/06/14 07:38:34;;;;;;;6.13;2.23;;;18.40;99.90;;;;;;4944639;29;20190;-85
2021/06/14 07:40:59;;;;;;;3.30;1.80;;;18.50;99.90;;;;;;4961705;29;20181;-86
2021/06/14 07:43:26;;;;;;;3.87;1.90;;;18.60;99.90;;;;;;4962191;29;20205;-86
2021/06/14 07:45:53;;;;;;;3.13;1.87;;;18.80;99.90;;;;;;4961156;29;20187;-85
2021/06/14 07:48:18;;;;;;;3.70;1.60;;;19.00;99.90;;;;;;4962658;29;20186;-86
2021/06/14 07:50:46;;;;;;;5.53;2.23;;;19.10;99.90;;;;;;4947172;29;20274;-85
2021/06/14 07:53:12;;;;;;;3.37;1.67;;;19.20;99.90;;;;;;4962808;29;20181;-85
2021/06/14 07:55:38;;;;;;;3.70;1.57;;;19.40;99.90;;;;;;4946558;29;20199;-85
2021/06/14 07:58:05;;;;;;;5.50;1.80;;;19.40;99.90;;;;;;4967756;29;20182;-85
2021/06/14 08:00:31;;;;;;;4.83;2.00;;;19.50;99.90;;;;;;4968428;29;20689;-85
2021/06/14 08:02:57;;;;;;;4.17;1.87;;;19.60;99.90;;;;;;4950692;29;20244;-85
2021/06/14 08:05:24;;;;;;;5.67;1.90;;;19.70;99.90;;;;;;4968800;29;20176;-85
2021/06/14 08:07:49;;;;;;;3.77;1.50;;;19.80;99.90;;;;;;4950513;29;20204;-85
2021/06/14 08:10:17;;;;;;;4.27;1.70;;;19.90;99.90;;;;;;4967621;29;20268;-85
2021/06/14 08:12:52;;;;;;;3.47;1.60;;;20.00;99.90;;;;;;4968968;29;20259;-86
2021/06/14 08:15:20;;;;;;;4.33;1.80;;;20.10;99.90;;;;;;4968747;29;20165;-85
2021/06/14 08:17:47;;;;;;;3.77;1.97;;;20.20;99.90;;;;;;4965571;29;20203;-84
2021/06/14 08:25:33;;;;;;;3.40;1.83;;;20.20;99.90;;;;;;4969940;29;20579;-86
2021/06/14 08:27:59;;;;;;;4.40;1.80;;;20.40;99.90;;;;;;4971699;29;20251;-86
2021/06/14 08:30:27;;;;;;;4.50;1.80;;;20.50;99.90;;;;;;4966929;29;20272;-86
2021/06/14 08:32:54;;;;;;;2.53;1.70;;;20.60;99.90;;;;;;4970710;28;20300;-85
2021/06/14 08:35:23;;;;;;;2.70;1.70;;;20.80;99.90;;;;;;4947426;29;20181;-86
2021/06/14 08:37:51;;;;;;;4.57;1.70;;;20.90;99.90;;;;;;4965092;29;20193;-86
2021/06/14 08:40:20;;;;;;;3.33;2.03;;;21.10;99.90;;;;;;4947924;29;20209;-86
2021/06/14 08:42:46;;;;;;;3.70;1.83;;;21.30;99.90;;;;;;4948406;29;20181;-85
2021/06/14 08:45:13;;;;;;;2.57;1.70;;;21.50;99.90;;;;;;4965563;29;20181;-86
2021/06/14 08:47:41;;;;;;;2.87;1.57;;;21.70;99.90;;;;;;4964509;29;20201;-86
2021/06/14 08:50:10;;;;;;;3.67;1.73;;;22.00;99.90;;;;;;4947175;29;20185;-86
2021/06/14 08:52:37;;;;;;;2.43;1.60;;;22.20;99.90;;;;;;4965250;29;20291;-86
2021/06/14 08:55:08;;;;;;;2.07;1.40;;;22.30;99.90;;;;;;4965103;29;20266;-86
2021/06/14 08:57:34;;;;;;;3.33;1.90;;;22.50;99.70;;;;;;4964392;29;20302;-86
2021/06/14 09:00:00;;;;;;;4.63;1.90;;;22.60;97.70;;;;;;4947959;29;20653;-86
2021/06/14 09:02:25;;;;;;;5.83;1.83;;;22.60;99.90;;;;;;4947327;29;20190;-86
2021/06/14 09:04:51;;;;;;;3.03;1.83;;;22.60;99.80;;;;;;4947929;29;20310;-86
2021/06/14 09:07:18;;;;;;;5.93;1.90;;;22.60;97.90;;;;;;4947649;29;20207;-85
2021/06/14 09:09:45;;;;;;;3.30;1.80;;;22.60;99.30;;;;;;4947407;29;20184;-85
2021/06/14 09:12:11;;;;;;;2.30;1.70;;;22.70;99.90;;;;;;4947894;29;20204;-83
2021/06/14 09:14:40;;;;;;;2.27;1.93;;;22.90;99.90;;;;;;4948041;29;20211;-84
2021/06/14 09:17:17;;;;;;;3.40;1.90;;;23.10;99.90;;;;;;4965083;29;20197;-84
2021/06/14 09:19:52;;;;;;;3.73;1.80;;;23.10;99.90;;;;;;4964768;29;20177;-84
2021/06/14 09:22:24;;;;;;;3.23;1.83;;;23.30;99.90;;;;;;4964457;29;20180;-84
2021/06/14 09:25:03;;;;;;;3.63;1.93;;;23.50;98.20;;;;;;4965953;29;20246;-84
2021/06/14 09:27:35;;;;;;;4.30;1.60;;;23.60;96.00;;;;;;4947713;29;20209;-85
2021/06/14 09:30:16;;;;;;;3.43;1.77;;;23.80;98.90;;;;;;4947314;29;20176;-84
2021/06/14 09:33:25;;;;;;;3.83;1.50;;;23.90;98.10;;;;;;4947825;29;20174;-85
2021/06/14 09:35:53;;;;;;;3.83;2.13;;;24.20;98.90;;;;;;4936174;29;20622;-85
2021/06/14 09:38:21;;;;;;;6.07;1.90;;;24.40;95.70;;;;;;4965066;29;20184;-84
2021/06/14 09:40:57;;;;;;;3.33;1.70;;;24.40;99.90;;;;;;4965080;29;20265;-84
2021/06/14 09:43:22;;;;;;;1.93;1.30;;;24.40;95.30;;;;;;4964735;29;20196;-84
2021/06/14 09:45:48;;;;;;;3.83;1.40;;;24.50;94.60;;;;;;4947990;29;20262;-85
2021/06/14 09:48:15;;;;;;;2.27;1.50;;;24.50;97.00;;;;;;4947579;29;20695;-85
2021/06/14 09:50:44;;;;;;;1.77;1.40;;;24.70;96.90;;;;;;4964541;29;20195;-85
2021/06/14 09:53:15;;;;;;;3.03;1.50;;;24.80;96.10;;;;;;4964388;29;20204;-85
2021/06/14 09:55:43;;;;;;;2.17;1.70;;;25.00;95.90;;;;;;4948011;29;20184;-85
2021/06/14 09:58:20;;;;;;;3.33;1.60;;;25.20;93.00;;;;;;4964569;29;20188;-85
2021/06/14 10:01:03;;;;;;;3.23;1.53;;;25.40;95.80;;;;;;4946948;29;20207;-85
2021/06/14 10:03:46;;;;;;;5.20;1.80;;;25.50;94.90;;;;;;4947630;29;20200;-85
2021/06/14 10:06:14;;;;;;;3.53;1.53;;;25.60;86.10;;;;;;4948111;29;20206;-85
2021/06/14 10:08:44;;;;;;;3.13;1.47;;;25.50;91.60;;;;;;4949727;29;20181;-84
2021/06/14 10:11:18;;;;;;;4.40;2.07;;;25.60;93.00;;;;;;4949652;29;20181;-85
2021/06/14 10:13:49;;;;;;;3.30;1.30;;;25.80;90.40;;;;;;4967718;29;20196;-85
2021/06/14 10:16:24;;;;;;;4.07;1.63;;;25.90;92.00;;;;;;4949901;29;20206;-85
2021/06/14 10:18:58;;;;;;;4.03;1.70;;;26.10;90.30;;;;;;4966555;28;20730;-84
2021/06/14 10:21:25;;;;;;;2.03;1.30;;;26.20;83.50;;;;;;4949616;29;20268;-85
2021/06/14 10:23:52;;;;;;;2.37;1.33;;;26.30;88.50;;;;;;4949719;29;20276;-85
2021/06/14 10:26:20;;;;;;;3.50;1.30;;;26.40;79.40;;;;;;4948155;29;20199;-85
2021/06/14 10:28:47;;;;;;;1.93;1.10;;;26.70;85.70;;;;;;4948479;29;20192;-85
2021/06/14 10:31:13;;;;;;;3.47;1.57;;;26.80;87.50;;;;;;4948465;29;20236;-84
2021/06/14 10:33:41;;;;;;;2.83;1.60;;;26.90;78.80;;;;;;4948640;29;20186;-84
2021/06/14 10:36:08;;;;;;;6.00;1.50;;;26.90;74.10;;;;;;4965650;29;20727;-85
2021/06/14 10:38:38;;;;;;;6.63;1.50;;;26.80;84.30;;;;;;4949430;29;20190;-85
2021/06/14 10:41:05;;;;;;;4.17;1.73;;;27.00;80.30;;;;;;4966861;29;20177;-84
2021/06/14 10:43:31;;;;;;;3.77;1.63;;;27.20;86.60;;;;;;4949771;29;20242;-83
2021/06/14 10:45:58;;;;;;;2.67;1.30;;;27.30;72.90;;;;;;4949305;29;20206;-84
2021/06/14 10:48:27;;;;;;;1.57;1.27;;;27.30;72.80;;;;;;4949880;29;20210;-84
2021/06/14 10:50:54;;;;;;;2.60;1.43;;;27.40;73.20;;;;;;4951161;29;20186;-84
2021/06/14 10:53:25;;;;;;;2.10;1.40;;;27.50;72.50;;;;;;4950785;29;20187;-84
2021/06/14 10:55:51;;;;;;;1.37;1.17;;;27.60;75.80;;;;;;4968042;29;20182;-86
2021/06/14 10:58:18;;;;;;;2.13;1.27;;;27.70;74.00;;;;;;4954328;29;20664;-84
2021/06/14 11:00:44;;;;;;;4.20;1.20;;;27.70;76.70;;;;;;4955757;29;20186;-84
2021/06/14 11:03:12;;;;;;;5.33;1.60;;;27.80;74.10;;;;;;4947740;29;20187;-84
2021/06/14 11:05:44;;;;;;;3.03;1.63;;;27.90;67.00;;;;;;4946410;29;20180;-83
2021/06/14 11:08:21;;;;;;;3.33;1.60;;;27.80;69.00;;;;;;4945641;29;20185;-84
2021/06/14 11:11:04;;;;;;;1.37;1.20;;;28.20;73.50;;;;;;4944812;29;20186;-83
2021/06/14 11:13:30;;;;;;;2.90;1.40;;;28.40;74.50;;;;;;4952394;29;20203;-84
2021/06/14 11:16:01;;;;;;;2.30;1.20;;;28.70;70.70;;;;;;4966159;29;20198;-82
2021/06/14 11:18:30;;;;;;;4.10;1.43;;;28.70;70.50;;;;;;4947727;29;20167;-82
2021/06/14 11:21:17;;;;;;;3.17;1.50;;;28.80;69.90;;;;;;4944248;29;20230;-82
2021/06/14 11:23:46;;;;;;;1.93;1.30;;;29.30;69.10;;;;;;4961022;29;20215;-83
2021/06/14 11:26:13;;;;;;;1.80;1.23;;;29.60;62.00;;;;;;4946702;29;20263;-82
2021/06/14 11:28:44;;;;;;;2.60;1.30;;;29.80;61.90;;;;;;4946862;29;20178;-83
2021/06/14 11:31:24;;;;;;;2.40;1.17;;;30.00;60.60;;;;;;4949902;29;20194;-83
2021/06/14 11:33:52;;;;;;;1.83;1.30;;;30.20;63.40;;;;;;4951370;29;20173;-83
2021/06/14 11:36:22;;;;;;;2.13;1.07;;;30.10;61.80;;;;;;4951703;29;20764;-82
2021/06/14 11:38:49;;;;;;;2.93;1.30;;;30.30;62.70;;;;;;4968193;29;20186;-82
2021/06/14 11:41:31;;;;;;;1.57;1.23;;;30.60;60.90;;;;;;4967090;29;20184;-82
2021/06/14 11:44:19;;;;;;;2.70;1.30;;;30.80;58.80;;;;;;4966777;29;20205;-82
2021/06/14 11:46:45;;;;;;;3.23;1.50;;;31.10;61.70;;;;;;4950032;29;20201;-82
2021/06/14 11:49:11;;;;;;;3.33;1.53;;;31.60;58.10;;;;;;4966911;29;20178;-82
2021/06/14 11:51:37;;;;;;;2.83;1.50;;;32.10;56.70;;;;;;4949261;29;20184;-84
2021/06/14 11:54:04;;;;;;;1.77;1.40;;;32.20;52.40;;;;;;4948461;29;20189;-83
2021/06/14 11:56:36;;;;;;;3.10;1.20;;;32.00;52.00;;;;;;4948300;29;20212;-83
2021/06/14 11:59:03;;;;;;;4.40;1.53;;;32.30;56.40;;;;;;4966130;29;20182;-82
2021/06/14 12:01:40;;;;;;;3.93;1.33;;;32.70;55.50;;;;;;4947778;29;20191;-82
2021/06/14 12:04:08;;;;;;;4.10;1.60;;;33.00;54.30;;;;;;4947076;29;20296;-84
2021/06/14 12:06:45;;;;;;;2.87;1.33;;;33.00;51.90;;;;;;4947925;29;20214;-82
2021/06/14 12:09:17;;;;;;;1.40;1.30;;;33.20;51.50;;;;;;4964515;29;20214;-82
2021/06/14 12:11:43;;;;;;;4.20;1.10;;;33.40;50.40;;;;;;4946700;29;20187;-77
2021/06/14 12:14:18;;;;;;;2.00;1.33;;;33.40;50.50;;;;;;4963598;29;20190;-78
2021/06/14 12:16:48;;;;;;;2.13;1.20;;;33.60;48.70;;;;;;4946172;29;20206;-77
2021/06/14 12:19:15;;;;;;;3.80;1.47;;;33.40;46.20;;;;;;4963165;29;20172;-77
2021/06/14 12:21:41;;;;;;;1.33;1.10;;;33.30;48.50;;;;;;4965503;29;20610;-83
2021/06/14 12:24:17;;;;;;;3.93;1.17;;;33.00;50.00;;;;;;4966116;29;20208;-80
2021/06/14 12:26:43;;;;;;;2.00;1.37;;;33.10;49.60;;;;;;4948264;29;20275;-84
2021/06/14 12:29:24;;;;;;;3.87;1.10;;;33.40;51.10;;;;;;4968193;29;20173;-85
2021/06/14 12:32:02;;;;;;;2.23;1.10;;;33.70;50.70;;;;;;4951528;29;20181;-85
2021/06/14 12:34:29;;;;;;;0.93;0.83;;;33.70;48.80;;;;;;4950077;29;20212;-85
2021/06/14 12:37:06;;;;;;;1.97;0.90;;;33.80;48.90;;;;;;4946775;29;20202;-82
2021/06/14 12:39:33;;;;;;;1.83;1.10;;;33.90;52.80;;;;;;4944986;29;20185;-83
2021/06/14 12:42:00;;;;;;;1.60;1.00;;;33.60;46.20;;;;;;4961977;28;20181;-82
2021/06/14 12:44:26;;;;;;;2.47;1.27;;;33.60;48.10;;;;;;4945301;29;20552;-82
2021/06/14 12:46:52;;;;;;;2.17;1.13;;;33.80;45.00;;;;;;4945719;29;20216;-82
2021/06/14 12:49:30;;;;;;;2.10;1.30;;;33.90;49.20;;;;;;4945447;29;20182;-84
2021/06/14 12:51:55;;;;;;;1.00;0.87;;;33.20;44.70;;;;;;4945617;29;20170;-84
2021/06/14 12:54:22;;;;;;;3.03;1.10;;;32.80;49.20;;;;;;4946210;29;20190;-83
2021/06/14 12:56:53;;;;;;;1.37;1.10;;;33.40;49.30;;;;;;4964257;29;20715;-84